Time;durP1;ratioP1;P1;durP2;ratioP2;P2;SDS_P1;SDS_P2;PMS_P1;PMS_P2;Temp;Humidity;BMP_temperature;BMP_pressure;BME280_temperature;BME280_humidity;BME280_pressure;Samples;Min_cycle;Max_cycle;Signal;HPM_P1;HPM_P2
2021/08/08 00:00:33;;;;;;;3.28;2.53;;;19.00;91.60;;;;;;3540809;40;20042;-68
2021/08/08 00:02:59;;;;;;;3.53;2.15;;;19.00;91.60;;;;;;3541792;40;20041;-69
2021/08/08 00:05:25;;;;;;;2.75;2.10;;;19.00;91.50;;;;;;3542108;40;20693;-67
2021/08/08 00:07:51;;;;;;;7.45;2.80;;;19.00;91.50;;;;;;3541721;40;20744;-69
2021/08/08 00:10:16;;;;;;;3.35;2.30;;;18.90;91.50;;;;;;3541884;40;20039;-68
2021/08/08 00:12:42;;;;;;;3.53;2.70;;;18.90;91.40;;;;;;3541500;40;20042;-68
2021/08/08 00:15:10;;;;;;;5.70;2.30;;;18.90;91.40;;;;;;3541977;40;20026;-68
2021/08/08 00:17:36;;;;;;;7.25;2.42;;;18.80;91.50;;;;;;3542036;40;20031;-67
2021/08/08 00:20:06;;;;;;;4.70;2.40;;;18.80;91.40;;;;;;3541448;40;20023;-68
2021/08/08 00:22:32;;;;;;;3.75;2.30;;;18.80;91.60;;;;;;3541857;40;20042;-70
2021/08/08 00:25:00;;;;;;;3.05;2.75;;;18.80;91.30;;;;;;3539882;40;20052;-69
2021/08/08 00:27:25;;;;;;;3.63;2.38;;;18.80;91.30;;;;;;3541583;40;20049;-68
2021/08/08 00:29:52;;;;;;;4.68;2.50;;;18.80;91.50;;;;;;3540808;40;20045;-68
2021/08/08 00:32:17;;;;;;;4.07;2.60;;;18.70;91.60;;;;;;3549225;40;20691;-68
2021/08/08 00:34:44;;;;;;;3.28;2.53;;;18.80;91.50;;;;;;3539425;40;20033;-68
2021/08/08 00:37:10;;;;;;;4.25;2.58;;;18.80;91.40;;;;;;3539886;40;20039;-69
2021/08/08 00:39:36;;;;;;;3.33;2.35;;;18.70;91.30;;;;;;3540810;40;20042;-68
2021/08/08 00:42:03;;;;;;;5.25;2.35;;;18.70;91.50;;;;;;3539297;40;20054;-68
2021/08/08 00:44:29;;;;;;;2.83;2.30;;;18.70;91.30;;;;;;3547604;40;20065;-69
2021/08/08 00:46:57;;;;;;;3.83;2.97;;;18.70;91.10;;;;;;3538905;40;20043;-69
2021/08/08 00:49:25;;;;;;;2.53;2.33;;;18.70;91.20;;;;;;3539348;40;20124;-70
2021/08/08 00:51:52;;;;;;;3.03;2.47;;;18.70;91.40;;;;;;3539662;40;20034;-69
2021/08/08 00:54:21;;;;;;;11.75;2.50;;;18.60;91.50;;;;;;3547918;40;20404;-69
2021/08/08 00:56:47;;;;;;;3.97;2.30;;;18.60;91.60;;;;;;3541269;40;20025;-69
2021/08/08 00:59:13;;;;;;;2.65;2.15;;;18.60;91.60;;;;;;3538460;40;20038;-70
2021/08/08 01:01:45;;;;;;;5.85;2.50;;;18.60;91.60;;;;;;3539435;40;20061;-69
2021/08/08 01:04:24;;;;;;;3.70;2.22;;;18.60;91.50;;;;;;3541203;40;20034;-69
2021/08/08 01:07:16;;;;;;;2.67;2.28;;;18.60;91.30;;;;;;3538684;40;20843;-69
2021/08/08 01:09:49;;;;;;;4.20;2.10;;;18.60;91.20;;;;;;3547334;40;20170;-70
2021/08/08 01:12:16;;;;;;;3.17;2.17;;;18.60;91.30;;;;;;3539844;40;20041;-69
2021/08/08 01:14:48;;;;;;;3.15;2.35;;;18.60;91.10;;;;;;3548164;40;20036;-69
2021/08/08 01:17:16;;;;;;;9.63;2.63;;;18.60;90.90;;;;;;3547778;40;20050;-69
2021/08/08 01:19:58;;;;;;;2.83;1.70;;;18.60;91.00;;;;;;3548019;40;20041;-68
2021/08/08 01:22:29;;;;;;;6.40;2.22;;;18.50;91.30;;;;;;3539551;40;20038;-69
2021/08/08 01:24:56;;;;;;;4.40;2.55;;;18.50;91.10;;;;;;3548104;40;20041;-69
2021/08/08 01:27:22;;;;;;;5.13;2.45;;;18.50;91.20;;;;;;3548380;40;20097;-69
2021/08/08 01:29:52;;;;;;;3.45;2.40;;;18.60;91.10;;;;;;3547559;40;20049;-69
2021/08/08 01:32:18;;;;;;;3.13;2.17;;;18.50;91.10;;;;;;3542774;40;20078;-70
2021/08/08 01:34:44;;;;;;;4.65;2.58;;;18.60;91.00;;;;;;3540294;40;20388;-70
2021/08/08 01:37:19;;;;;;;8.00;2.30;;;18.60;90.80;;;;;;3540090;40;20424;-70
2021/08/08 01:40:12;;;;;;;4.28;2.50;;;18.60;91.00;;;;;;3539285;40;20422;-69
2021/08/08 01:42:43;;;;;;;3.70;2.10;;;18.50;91.00;;;;;;3540085;40;20064;-68
2021/08/08 01:45:12;;;;;;;3.60;2.15;;;18.60;90.80;;;;;;3538256;40;20046;-69
2021/08/08 01:47:42;;;;;;;3.67;2.40;;;18.60;90.80;;;;;;3548415;40;20518;-69
2021/08/08 01:50:18;;;;;;;3.58;2.40;;;18.60;91.00;;;;;;3548230;40;20443;-70
2021/08/08 01:52:45;;;;;;;6.50;2.20;;;18.60;90.70;;;;;;3547661;40;20142;-69
2021/08/08 01:55:15;;;;;;;4.22;2.03;;;18.50;90.90;;;;;;3548247;40;20026;-69
2021/08/08 01:57:50;;;;;;;;;;;18.50;90.90;;;;;;3548003;40;20042;-68
2021/08/08 02:00:20;;;;;;;3.47;2.20;;;18.60;90.90;;;;;;3547815;40;19996;-69
2021/08/08 02:02:55;;;;;;;3.20;2.13;;;18.60;90.80;;;;;;3539771;40;20038;-69
2021/08/08 02:05:29;;;;;;;6.07;2.70;;;18.60;90.70;;;;;;3547749;40;20068;-69
2021/08/08 02:07:56;;;;;;;2.85;2.30;;;18.60;90.80;;;;;;3539730;40;20035;-69
2021/08/08 02:10:24;;;;;;;3.90;2.40;;;18.50;90.70;;;;;;3539165;40;20626;-69
2021/08/08 02:12:50;;;;;;;4.68;2.10;;;18.50;90.90;;;;;;3539537;40;20507;-69
2021/08/08 02:15:18;;;;;;;4.82;2.25;;;18.50;90.70;;;;;;3540967;40;20750;-69
2021/08/08 02:17:50;;;;;;;6.03;2.38;;;18.50;90.80;;;;;;3548305;40;20772;-70
2021/08/08 02:20:18;;;;;;;6.30;2.78;;;18.50;90.90;;;;;;3547699;40;20050;-69
2021/08/08 02:22:48;;;;;;;3.20;2.20;;;18.40;90.80;;;;;;3548293;40;20045;-69
2021/08/08 02:25:16;;;;;;;3.17;2.30;;;18.40;90.90;;;;;;3539922;40;20414;-70
2021/08/08 02:27:42;;;;;;;4.05;2.25;;;18.40;90.90;;;;;;3539340;40;20320;-70
2021/08/08 02:30:18;;;;;;;2.63;2.40;;;18.50;90.80;;;;;;3548329;40;20045;-70
2021/08/08 02:32:44;;;;;;;4.60;2.53;;;18.50;90.90;;;;;;3547774;40;20806;-70
2021/08/08 02:35:12;;;;;;;5.30;2.53;;;18.40;90.90;;;;;;3539394;40;20337;-70
2021/08/08 02:37:42;;;;;;;3.80;2.47;;;18.50;90.80;;;;;;3547193;40;20031;-70
2021/08/08 02:40:09;;;;;;;2.20;2.00;;;18.50;90.50;;;;;;3539383;40;20047;-71
2021/08/08 02:42:36;;;;;;;7.28;2.60;;;18.50;90.60;;;;;;3538864;40;20038;-70
2021/08/08 02:45:03;;;;;;;3.33;2.13;;;18.50;90.60;;;;;;3547420;40;20038;-70
2021/08/08 02:47:30;;;;;;;6.82;2.20;;;18.50;90.70;;;;;;3547861;40;20046;-69
2021/08/08 02:49:57;;;;;;;2.17;1.98;;;18.40;90.70;;;;;;3538984;40;20038;-70
2021/08/08 02:52:25;;;;;;;2.88;2.00;;;18.40;90.70;;;;;;3539915;40;20030;-70
2021/08/08 02:54:51;;;;;;;5.28;2.45;;;18.50;90.70;;;;;;3547917;40;20062;-70
2021/08/08 02:57:18;;;;;;;3.95;2.17;;;18.50;90.50;;;;;;3538946;40;20035;-70
2021/08/08 02:59:44;;;;;;;9.55;2.25;;;18.50;90.60;;;;;;3529751;40;20113;-69
2021/08/08 03:02:10;;;;;;;4.35;2.17;;;18.60;90.40;;;;;;3539410;40;20034;-70
2021/08/08 03:04:36;;;;;;;5.63;2.28;;;18.60;90.20;;;;;;3541125;40;20045;-70
2021/08/08 03:07:02;;;;;;;3.40;2.30;;;18.50;90.40;;;;;;3539388;40;20050;-69
2021/08/08 03:09:28;;;;;;;5.63;2.42;;;18.50;90.50;;;;;;3547898;40;20049;-70
2021/08/08 03:11:54;;;;;;;3.20;2.10;;;18.60;90.40;;;;;;3539039;40;20034;-69
2021/08/08 03:14:20;;;;;;;3.45;2.40;;;18.50;90.30;;;;;;3539597;40;20031;-70
2021/08/08 03:16:48;;;;;;;3.78;2.35;;;18.50;90.40;;;;;;3546906;40;20039;-70
2021/08/08 03:19:17;;;;;;;4.78;2.10;;;18.50;90.40;;;;;;3546483;40;20031;-70
2021/08/08 03:21:44;;;;;;;4.05;2.20;;;18.50;90.40;;;;;;3546205;40;20732;-69
2021/08/08 03:24:10;;;;;;;5.13;2.38;;;18.50;90.40;;;;;;3547884;40;20048;-70
2021/08/08 03:26:37;;;;;;;2.42;1.85;;;18.50;90.40;;;;;;3548250;40;20034;-70
2021/08/08 03:29:05;;;;;;;5.18;2.15;;;18.50;90.40;;;;;;3547929;40;20026;-70
2021/08/08 03:31:31;;;;;;;6.22;2.28;;;18.50;90.10;;;;;;3538725;40;20049;-70
2021/08/08 03:33:57;;;;;;;8.30;2.03;;;18.50;90.20;;;;;;3539616;40;20058;-70
2021/08/08 03:36:26;;;;;;;3.25;1.98;;;18.50;90.20;;;;;;3547072;40;20301;-70
2021/08/08 03:38:54;;;;;;;3.47;1.88;;;18.50;89.30;;;;;;3540971;40;20045;-70
2021/08/08 03:41:20;;;;;;;4.88;2.10;;;18.50;89.20;;;;;;3539662;40;20034;-70
2021/08/08 03:43:46;;;;;;;2.72;2.10;;;18.40;89.30;;;;;;3540945;40;20390;-70
2021/08/08 03:46:11;;;;;;;3.08;1.75;;;18.40;89.50;;;;;;3548292;40;20030;-70
2021/08/08 03:48:37;;;;;;;5.93;1.73;;;18.40;89.70;;;;;;3531657;40;20042;-70
2021/08/08 03:51:05;;;;;;;3.88;2.30;;;18.30;89.30;;;;;;3539503;40;20909;-70
2021/08/08 03:53:31;;;;;;;2.40;1.58;;;18.30;89.40;;;;;;3539433;40;20465;-70
2021/08/08 03:55:57;;;;;;;3.53;1.58;;;18.30;89.20;;;;;;3540162;40;20034;-70
2021/08/08 03:58:23;;;;;;;2.70;1.70;;;18.20;89.50;;;;;;3540425;40;20026;-70
2021/08/08 04:00:49;;;;;;;1.98;1.63;;;18.20;89.40;;;;;;3548314;40;20058;-69
2021/08/08 04:03:15;;;;;;;5.15;1.85;;;18.20;89.70;;;;;;3541886;40;20034;-70
2021/08/08 04:05:40;;;;;;;2.20;1.40;;;18.30;89.20;;;;;;3537925;40;20229;-70
2021/08/08 04:08:07;;;;;;;1.58;1.40;;;18.20;89.10;;;;;;3548375;40;20050;-70
2021/08/08 04:10:33;;;;;;;3.53;1.50;;;18.20;89.50;;;;;;3540186;40;20106;-69
2021/08/08 04:12:59;;;;;;;2.58;1.70;;;18.20;89.60;;;;;;3539924;40;20684;-69
2021/08/08 04:15:25;;;;;;;1.75;1.65;;;18.20;89.90;;;;;;3548584;40;20034;-70
2021/08/08 04:17:51;;;;;;;1.63;1.45;;;18.10;89.40;;;;;;3539773;40;20103;-70
2021/08/08 04:20:18;;;;;;;2.78;1.38;;;18.20;88.50;;;;;;3540539;40;20046;-70
2021/08/08 04:22:44;;;;;;;3.45;1.40;;;18.20;88.80;;;;;;3548550;40;20038;-70
2021/08/08 04:25:10;;;;;;;2.58;1.30;;;18.10;89.10;;;;;;3539512;40;20030;-70
2021/08/08 04:27:37;;;;;;;4.05;1.60;;;18.10;89.10;;;;;;3539900;40;20047;-70
2021/08/08 04:30:03;;;;;;;2.22;1.25;;;18.10;88.70;;;;;;3540588;40;20027;-69
2021/08/08 04:32:31;;;;;;;2.58;1.50;;;18.20;88.20;;;;;;3544828;40;20039;-69
2021/08/08 04:34:57;;;;;;;3.55;1.45;;;18.20;87.60;;;;;;3548275;40;20026;-70
2021/08/08 04:37:22;;;;;;;1.35;1.25;;;18.20;87.40;;;;;;3541611;40;20038;-70
2021/08/08 04:39:49;;;;;;;1.95;1.17;;;18.20;87.10;;;;;;3539180;40;20047;-69
2021/08/08 04:42:17;;;;;;;4.00;1.17;;;18.20;86.00;;;;;;3547762;40;20120;-69
2021/08/08 04:44:42;;;;;;;1.42;0.98;;;18.20;85.80;;;;;;3540185;40;20034;-68
2021/08/08 04:47:08;;;;;;;4.15;1.15;;;18.20;85.30;;;;;;3540982;40;20057;-70
2021/08/08 04:49:34;;;;;;;1.30;1.00;;;18.20;84.50;;;;;;3539694;40;20696;-69
2021/08/08 04:52:02;;;;;;;3.17;1.10;;;18.20;85.30;;;;;;3538913;40;20030;-69
2021/08/08 04:54:29;;;;;;;2.78;1.10;;;18.20;85.50;;;;;;3537947;40;20019;-69
2021/08/08 04:56:55;;;;;;;1.10;0.90;;;18.20;84.70;;;;;;3539805;40;20070;-70
2021/08/08 04:59:21;;;;;;;3.53;1.13;;;18.30;84.50;;;;;;3540660;40;20045;-69
2021/08/08 05:01:57;;;;;;;1.25;1.00;;;18.30;84.40;;;;;;3548355;40;20315;-69
2021/08/08 05:04:24;;;;;;;3.88;1.23;;;18.30;83.90;;;;;;3535672;40;20023;-68
2021/08/08 05:06:50;;;;;;;0.77;0.77;;;18.30;83.80;;;;;;3541484;40;20022;-68
2021/08/08 05:09:16;;;;;;;1.65;1.00;;;18.40;83.30;;;;;;3541343;40;20045;-68
2021/08/08 05:11:42;;;;;;;2.35;1.20;;;18.40;83.20;;;;;;3539411;40;20042;-68
2021/08/08 05:14:08;;;;;;;1.77;0.88;;;18.40;82.80;;;;;;3547318;40;20780;-69
2021/08/08 05:16:37;;;;;;;1.30;0.90;;;18.40;82.40;;;;;;3546471;40;20027;-67
2021/08/08 05:19:02;;;;;;;1.70;0.80;;;18.40;82.60;;;;;;3546951;40;20132;-67
2021/08/08 05:21:31;;;;;;;1.15;0.88;;;18.50;83.50;;;;;;3538881;40;20042;-68
2021/08/08 05:23:56;;;;;;;2.72;0.95;;;18.50;81.40;;;;;;3539294;40;20030;-67
2021/08/08 05:26:22;;;;;;;1.30;0.77;;;18.50;81.60;;;;;;3540490;40;20042;-68
2021/08/08 05:28:48;;;;;;;1.73;0.73;;;18.60;82.10;;;;;;3546250;40;20379;-67
2021/08/08 05:31:13;;;;;;;2.90;0.80;;;18.50;81.60;;;;;;3538508;40;20125;-67
2021/08/08 05:33:39;;;;;;;2.08;0.98;;;18.60;81.20;;;;;;3539736;40;20034;-67
2021/08/08 05:36:05;;;;;;;1.05;0.90;;;18.60;81.70;;;;;;3540371;40;20675;-67
2021/08/08 05:38:32;;;;;;;1.00;0.80;;;18.70;81.40;;;;;;3536890;40;20039;-67
2021/08/08 05:40:58;;;;;;;2.58;0.90;;;18.80;80.90;;;;;;3540511;40;20147;-67
2021/08/08 05:43:24;;;;;;;2.20;0.90;;;18.80;81.30;;;;;;3541296;40;20026;-68
2021/08/08 05:45:50;;;;;;;1.95;0.70;;;18.80;81.20;;;;;;3541315;40;20030;-68
2021/08/08 05:48:16;;;;;;;2.75;0.57;;;18.90;81.00;;;;;;3539675;40;20788;-67
2021/08/08 05:50:42;;;;;;;1.67;0.80;;;18.90;81.20;;;;;;3541980;40;20402;-68
2021/08/08 05:53:08;;;;;;;1.38;0.65;;;18.90;80.80;;;;;;3541706;40;20042;-68
2021/08/08 05:55:36;;;;;;;3.47;1.05;;;19.00;81.00;;;;;;3548576;40;20297;-67
2021/08/08 05:58:02;;;;;;;1.90;1.00;;;19.00;81.30;;;;;;3539124;40;20054;-67
2021/08/08 06:00:28;;;;;;;1.38;0.90;;;19.00;81.40;;;;;;3539661;40;20035;-68
2021/08/08 06:03:06;;;;;;;1.48;0.77;;;19.10;82.10;;;;;;3538342;40;20098;-67
2021/08/08 06:05:32;;;;;;;0.68;0.60;;;19.10;80.40;;;;;;3539039;40;20031;-68
2021/08/08 06:07:59;;;;;;;1.75;0.85;;;19.20;81.00;;;;;;3539678;40;20039;-67
2021/08/08 06:10:24;;;;;;;1.17;0.73;;;19.20;80.30;;;;;;3539694;40;20439;-69
2021/08/08 06:12:50;;;;;;;1.90;0.82;;;19.30;80.90;;;;;;3539711;40;20040;-67
2021/08/08 06:15:16;;;;;;;4.90;0.98;;;19.40;80.60;;;;;;3538710;40;20053;-68
2021/08/08 06:17:42;;;;;;;1.02;0.88;;;19.40;79.60;;;;;;3539707;40;20042;-67
2021/08/08 06:20:09;;;;;;;1.80;0.90;;;19.50;78.80;;;;;;3548524;40;20027;-67
2021/08/08 06:22:37;;;;;;;2.00;0.90;;;19.60;78.90;;;;;;3539520;40;20172;-68
2021/08/08 06:25:03;;;;;;;1.02;0.68;;;19.60;79.20;;;;;;3548382;40;20066;-68
2021/08/08 06:27:29;;;;;;;0.90;0.70;;;19.70;77.60;;;;;;3539767;40;20042;-68
2021/08/08 06:29:55;;;;;;;2.15;0.90;;;19.70;77.30;;;;;;3540934;40;20686;-68
2021/08/08 06:32:21;;;;;;;2.95;0.73;;;19.80;77.20;;;;;;3538768;40;20041;-67
2021/08/08 06:34:47;;;;;;;1.80;0.60;;;19.80;76.00;;;;;;3539182;40;20034;-67
2021/08/08 06:37:12;;;;;;;1.80;1.00;;;19.80;76.40;;;;;;3539810;40;20043;-67
2021/08/08 06:39:38;;;;;;;1.83;0.68;;;19.90;75.00;;;;;;3540805;40;20078;-68
2021/08/08 06:42:04;;;;;;;1.42;0.85;;;19.90;76.00;;;;;;3539671;40;20042;-67
2021/08/08 06:44:35;;;;;;;0.90;0.77;;;20.00;76.90;;;;;;3539106;40;20349;-68
2021/08/08 06:47:01;;;;;;;1.92;1.15;;;20.20;74.90;;;;;;3547858;40;20027;-68
2021/08/08 06:49:28;;;;;;;1.08;0.70;;;20.20;75.70;;;;;;3547705;40;20030;-69
2021/08/08 06:51:55;;;;;;;2.25;0.90;;;20.20;75.10;;;;;;3539430;40;20050;-67
2021/08/08 06:54:20;;;;;;;0.63;0.60;;;20.30;74.60;;;;;;3539014;40;20062;-68
2021/08/08 06:56:46;;;;;;;0.80;0.70;;;20.30;73.80;;;;;;3541625;40;20030;-67
2021/08/08 06:59:12;;;;;;;1.92;0.80;;;20.30;73.90;;;;;;3540054;40;20034;-67
2021/08/08 07:01:38;;;;;;;0.85;0.63;;;20.30;73.90;;;;;;3548585;40;20026;-68
2021/08/08 07:04:04;;;;;;;2.85;0.93;;;20.40;73.30;;;;;;3548813;40;20078;-68
2021/08/08 07:06:30;;;;;;;1.52;0.80;;;20.40;72.40;;;;;;3540768;40;20038;-69
2021/08/08 07:08:56;;;;;;;1.00;0.50;;;20.40;74.10;;;;;;3540908;40;20182;-69
2021/08/08 07:11:22;;;;;;;2.22;1.00;;;20.50;73.70;;;;;;3540621;40;20087;-68
2021/08/08 07:13:49;;;;;;;1.20;0.88;;;20.60;72.70;;;;;;3540553;40;20046;-68
2021/08/08 07:16:15;;;;;;;1.52;0.80;;;20.60;73.30;;;;;;3549546;40;20034;-68
2021/08/08 07:18:43;;;;;;;3.80;0.90;;;20.70;71.80;;;;;;3540949;40;20034;-68
2021/08/08 07:21:09;;;;;;;2.30;0.75;;;20.70;71.30;;;;;;3541341;40;20100;-68
2021/08/08 07:23:35;;;;;;;1.73;0.80;;;20.80;70.90;;;;;;3549039;40;20038;-68
2021/08/08 07:26:01;;;;;;;1.65;0.68;;;20.80;71.30;;;;;;3539894;40;20523;-68
2021/08/08 07:28:27;;;;;;;2.70;0.75;;;20.80;70.90;;;;;;3548421;40;20149;-69
2021/08/08 07:30:53;;;;;;;4.22;0.70;;;20.80;71.00;;;;;;3540180;40;20072;-68
2021/08/08 07:33:18;;;;;;;1.33;0.90;;;20.80;71.30;;;;;;3540204;40;20034;-68
2021/08/08 07:35:45;;;;;;;2.85;0.73;;;20.90;69.90;;;;;;3548730;40;20337;-68
2021/08/08 07:38:10;;;;;;;0.98;0.70;;;21.00;70.90;;;;;;3540338;40;20054;-68
2021/08/08 07:40:36;;;;;;;0.90;0.70;;;21.20;70.40;;;;;;3539977;40;20590;-68
2021/08/08 07:43:03;;;;;;;1.33;0.52;;;21.30;68.50;;;;;;3540373;40;20042;-68
2021/08/08 07:45:30;;;;;;;3.85;1.00;;;21.40;67.70;;;;;;3539070;40;20403;-69
2021/08/08 07:47:56;;;;;;;2.92;1.10;;;21.40;68.10;;;;;;3539092;40;20047;-69
2021/08/08 07:50:23;;;;;;;0.65;0.60;;;21.30;66.50;;;;;;3539149;40;20027;-68
2021/08/08 07:52:49;;;;;;;1.92;0.88;;;21.10;66.00;;;;;;3535998;40;20046;-68
2021/08/08 07:55:14;;;;;;;1.00;0.73;;;20.90;67.10;;;;;;3548339;40;20026;-68
2021/08/08 07:57:41;;;;;;;4.00;0.70;;;21.00;66.90;;;;;;3539003;40;20029;-68
2021/08/08 08:00:08;;;;;;;1.73;0.60;;;21.10;67.40;;;;;;3539918;40;20058;-68
2021/08/08 08:02:43;;;;;;;0.68;0.57;;;21.10;70.20;;;;;;3541472;40;20035;-68
2021/08/08 08:05:10;;;;;;;0.90;0.85;;;21.20;67.00;;;;;;3540526;40;20086;-67
2021/08/08 08:07:36;;;;;;;4.45;0.98;;;21.30;66.50;;;;;;3539104;40;20031;-68
2021/08/08 08:10:02;;;;;;;4.47;0.98;;;21.40;66.60;;;;;;3539818;40;20092;-68
2021/08/08 08:12:28;;;;;;;0.98;0.93;;;21.30;66.40;;;;;;3540692;40;20419;-68
2021/08/08 08:14:53;;;;;;;1.58;1.00;;;21.30;67.40;;;;;;3539954;40;20046;-67
2021/08/08 08:17:19;;;;;;;1.98;0.90;;;21.40;67.30;;;;;;3539899;40;20042;-66
2021/08/08 08:19:45;;;;;;;1.52;0.98;;;21.50;66.50;;;;;;3539570;40;20058;-67
2021/08/08 08:22:16;;;;;;;1.13;0.90;;;21.60;67.10;;;;;;3539646;40;20069;-66
2021/08/08 08:24:45;;;;;;;2.40;1.05;;;21.70;67.20;;;;;;3547679;40;20050;-66
2021/08/08 08:27:11;;;;;;;1.67;0.80;;;21.70;67.50;;;;;;3540226;40;20111;-66
2021/08/08 08:29:38;;;;;;;1.75;0.70;;;21.90;66.20;;;;;;3541316;40;20105;-73
2021/08/08 08:32:05;;;;;;;1.52;0.70;;;22.10;64.80;;;;;;3540855;40;20027;-66
2021/08/08 08:34:32;;;;;;;2.80;0.70;;;22.20;64.00;;;;;;3540335;40;20053;-66
2021/08/08 08:36:57;;;;;;;3.10;0.93;;;22.30;64.20;;;;;;3547058;40;20810;-66
2021/08/08 08:39:23;;;;;;;1.50;0.70;;;22.30;65.00;;;;;;3538557;40;20115;-65
2021/08/08 08:41:52;;;;;;;0.95;0.70;;;22.20;64.00;;;;;;3538253;40;20035;-65
2021/08/08 08:44:19;;;;;;;1.45;0.80;;;22.20;64.20;;;;;;3539569;40;20038;-67
2021/08/08 08:46:47;;;;;;;1.77;0.73;;;22.40;65.00;;;;;;3548084;40;20031;-65
2021/08/08 08:49:18;;;;;;;1.63;0.70;;;22.60;64.40;;;;;;3547020;40;20136;-65
2021/08/08 08:51:50;;;;;;;4.80;0.90;;;22.70;63.20;;;;;;3538928;40;20042;-66
2021/08/08 08:54:18;;;;;;;1.33;0.90;;;22.90;63.40;;;;;;3538045;40;20146;-65
2021/08/08 08:56:44;;;;;;;1.77;0.70;;;22.80;63.40;;;;;;3539787;40;20064;-65
2021/08/08 08:59:11;;;;;;;0.85;0.68;;;22.90;63.30;;;;;;3539594;40;20054;-65
2021/08/08 09:01:39;;;;;;;1.48;0.70;;;23.00;61.80;;;;;;3537960;40;20058;-65
2021/08/08 09:04:05;;;;;;;2.78;1.20;;;22.90;61.30;;;;;;3539342;40;20042;-65
2021/08/08 09:06:31;;;;;;;2.35;1.02;;;22.70;61.80;;;;;;3538340;40;20896;-66
2021/08/08 09:08:58;;;;;;;4.82;1.80;;;22.50;61.00;;;;;;3538986;40;20066;-65
2021/08/08 09:11:24;;;;;;;2.10;1.02;;;22.40;61.40;;;;;;3547477;40;20045;-65
2021/08/08 09:13:55;;;;;;;1.05;0.95;;;22.40;61.00;;;;;;3546886;40;20358;-65
2021/08/08 09:16:25;;;;;;;3.00;1.88;;;22.30;62.10;;;;;;3539428;40;20046;-65
2021/08/08 09:18:55;;;;;;;1.73;1.10;;;22.40;62.90;;;;;;3539038;40;20514;-64
2021/08/08 09:21:23;;;;;;;1.80;0.90;;;22.40;62.30;;;;;;3536526;40;20046;-64
2021/08/08 09:23:54;;;;;;;2.05;0.77;;;22.40;62.10;;;;;;3539386;40;20671;-65
2021/08/08 09:26:31;;;;;;;3.00;0.80;;;22.30;61.90;;;;;;3539209;40;20039;-65
2021/08/08 09:29:07;;;;;;;2.65;0.70;;;22.40;63.50;;;;;;3547079;40;20046;-65
2021/08/08 09:31:41;;;;;;;1.88;0.82;;;22.50;62.10;;;;;;3539715;40;20152;-65
2021/08/08 09:34:08;;;;;;;3.38;0.60;;;22.60;62.30;;;;;;3540460;40;20041;-65
2021/08/08 09:36:41;;;;;;;3.00;0.80;;;22.70;59.80;;;;;;3540490;40;20026;-65
2021/08/08 09:39:08;;;;;;;1.85;0.70;;;22.70;61.80;;;;;;3541040;40;20851;-65
2021/08/08 09:41:36;;;;;;;2.83;1.50;;;22.90;61.40;;;;;;3538856;40;20413;-65
2021/08/08 09:44:06;;;;;;;1.23;0.85;;;23.10;60.80;;;;;;3539557;40;20033;-65
2021/08/08 09:46:31;;;;;;;1.40;1.15;;;23.30;59.30;;;;;;3541099;40;20033;-65
2021/08/08 09:49:12;;;;;;;4.40;1.77;;;23.30;58.70;;;;;;3539955;40;20030;-65
2021/08/08 09:51:52;;;;;;;4.20;1.00;;;23.40;58.60;;;;;;3540198;40;20019;-65
2021/08/08 09:54:21;;;;;;;1.42;1.00;;;23.50;56.90;;;;;;3540323;40;20666;-64
2021/08/08 09:57:00;;;;;;;3.42;1.20;;;23.50;58.00;;;;;;3540450;40;20078;-65
2021/08/08 09:59:26;;;;;;;4.30;0.70;;;23.40;60.50;;;;;;3540470;40;20023;-65
2021/08/08 10:01:52;;;;;;;1.23;0.98;;;23.30;57.90;;;;;;3540529;40;20037;-64
2021/08/08 10:04:18;;;;;;;3.60;1.08;;;23.30;57.70;;;;;;3548235;40;20042;-65
2021/08/08 10:06:47;;;;;;;2.25;0.75;;;23.30;56.90;;;;;;3540878;40;20038;-65
2021/08/08 10:09:13;;;;;;;1.02;0.80;;;23.30;56.90;;;;;;3541136;40;20140;-65
2021/08/08 10:11:46;;;;;;;1.42;0.85;;;23.50;57.30;;;;;;3540436;40;20034;-64
2021/08/08 10:14:13;;;;;;;3.50;0.98;;;23.70;56.70;;;;;;3540633;40;20325;-65
2021/08/08 10:16:44;;;;;;;3.72;1.00;;;23.80;55.70;;;;;;3547827;40;20093;-66
2021/08/08 10:19:11;;;;;;;1.70;0.98;;;23.90;56.90;;;;;;3539342;40;20033;-67
2021/08/08 10:21:41;;;;;;;2.25;1.10;;;24.00;55.70;;;;;;3540179;40;20045;-67
2021/08/08 10:24:08;;;;;;;1.52;0.75;;;24.20;56.10;;;;;;3540310;40;20030;-67
2021/08/08 10:26:35;;;;;;;1.77;0.90;;;24.20;54.70;;;;;;3539955;40;20699;-66
2021/08/08 10:29:03;;;;;;;2.40;0.80;;;24.00;54.50;;;;;;3539970;40;20045;-67
2021/08/08 10:31:31;;;;;;;1.45;0.90;;;24.00;54.40;;;;;;3540746;40;20058;-67
2021/08/08 10:33:59;;;;;;;2.25;0.77;;;23.90;55.10;;;;;;3542338;40;20030;-66
2021/08/08 10:36:31;;;;;;;1.40;0.80;;;23.70;55.00;;;;;;3541725;40;20212;-67
2021/08/08 10:39:14;;;;;;;2.47;1.35;;;23.40;55.80;;;;;;3541672;40;20038;-66
2021/08/08 10:41:42;;;;;;;2.08;1.02;;;23.30;56.70;;;;;;3541795;40;20035;-66
2021/08/08 10:44:10;;;;;;;5.63;1.40;;;23.30;56.10;;;;;;3541292;40;20634;-66
2021/08/08 10:46:49;;;;;;;1.98;0.80;;;23.40;56.90;;;;;;3542086;40;20030;-66
2021/08/08 10:49:30;;;;;;;3.33;0.73;;;23.30;56.20;;;;;;3540491;40;20123;-67
2021/08/08 10:52:00;;;;;;;1.88;0.73;;;23.40;56.80;;;;;;3541490;40;20062;-66
2021/08/08 10:54:26;;;;;;;3.90;0.70;;;23.40;57.60;;;;;;3542046;40;20026;-66
2021/08/08 10:56:52;;;;;;;2.08;0.82;;;23.50;56.00;;;;;;3548396;40;20045;-66
2021/08/08 10:59:22;;;;;;;2.55;1.10;;;23.40;56.30;;;;;;3542036;40;20128;-66
2021/08/08 11:02:09;;;;;;;1.52;0.93;;;23.30;56.80;;;;;;3538213;40;20078;-66
2021/08/08 11:04:35;;;;;;;1.73;1.05;;;23.10;57.20;;;;;;3538274;40;20042;-66
2021/08/08 11:07:03;;;;;;;1.20;0.95;;;22.90;57.90;;;;;;3539511;40;20836;-66
2021/08/08 11:09:34;;;;;;;5.60;1.00;;;22.90;59.10;;;;;;3540954;40;20049;-66
2021/08/08 11:12:00;;;;;;;5.38;1.45;;;23.00;58.60;;;;;;3540628;40;20132;-66
2021/08/08 11:14:26;;;;;;;3.88;1.35;;;23.10;55.80;;;;;;3540671;40;20034;-66
2021/08/08 11:17:05;;;;;;;2.85;1.15;;;23.00;56.90;;;;;;3540677;40;20128;-66
2021/08/08 11:19:32;;;;;;;1.65;1.27;;;23.10;56.00;;;;;;3539060;40;20038;-66
2021/08/08 11:22:14;;;;;;;1.15;0.90;;;23.10;56.80;;;;;;3540737;40;20038;-66
2021/08/08 11:24:43;;;;;;;2.55;1.40;;;23.10;57.60;;;;;;3542228;40;20065;-66
2021/08/08 11:27:10;;;;;;;1.65;0.93;;;23.20;57.00;;;;;;3541069;40;20046;-67
2021/08/08 11:29:37;;;;;;;1.67;0.63;;;23.30;56.10;;;;;;3540989;40;20193;-66
2021/08/08 11:32:06;;;;;;;2.25;1.20;;;23.40;55.40;;;;;;3541222;40;20045;-66
2021/08/08 11:34:32;;;;;;;0.85;0.70;;;23.40;55.20;;;;;;3541469;40;20613;-69
2021/08/08 11:36:58;;;;;;;3.00;0.98;;;23.50;56.10;;;;;;3541458;40;20136;-64
2021/08/08 11:39:32;;;;;;;2.13;1.00;;;23.60;54.30;;;;;;3541652;40;20726;-65
2021/08/08 11:42:04;;;;;;;1.67;1.10;;;23.70;55.80;;;;;;3541627;40;20068;-65
2021/08/08 11:44:41;;;;;;;1.63;0.70;;;23.90;55.90;;;;;;3541479;40;20035;-64
2021/08/08 11:47:08;;;;;;;3.40;1.95;;;24.00;51.90;;;;;;3541829;40;20030;-66
2021/08/08 11:49:44;;;;;;;5.82;1.60;;;24.00;52.70;;;;;;3541953;40;20324;-66
2021/08/08 11:52:16;;;;;;;3.15;1.27;;;23.80;51.50;;;;;;3541830;40;20035;-66
2021/08/08 11:54:43;;;;;;;4.03;1.55;;;23.60;52.20;;;;;;3542169;40;20131;-67
2021/08/08 11:57:12;;;;;;;1.15;0.80;;;23.60;53.10;;;;;;3541227;40;20030;-66
2021/08/08 11:59:38;;;;;;;4.85;1.10;;;23.70;52.60;;;;;;3541604;40;20124;-63
2021/08/08 12:02:08;;;;;;;1.52;0.65;;;23.80;52.60;;;;;;3541094;40;20031;-63
2021/08/08 12:04:41;;;;;;;1.80;1.10;;;23.90;52.70;;;;;;3541050;40;20447;-65
2021/08/08 12:07:09;;;;;;;2.58;1.10;;;24.10;52.00;;;;;;3541243;40;20073;-65
2021/08/08 12:09:35;;;;;;;1.92;1.00;;;24.30;51.50;;;;;;3539285;40;20030;-65
2021/08/08 12:12:04;;;;;;;3.92;1.05;;;24.40;52.60;;;;;;3540702;40;20031;-65
2021/08/08 12:14:36;;;;;;;2.78;1.27;;;24.50;51.50;;;;;;3540763;40;20121;-65
2021/08/08 12:17:06;;;;;;;2.38;1.00;;;24.50;52.10;;;;;;3541151;40;20040;-65
2021/08/08 12:19:35;;;;;;;1.95;1.15;;;24.60;51.40;;;;;;3541619;40;20046;-65
2021/08/08 12:22:09;;;;;;;2.08;0.93;;;24.70;50.50;;;;;;3540573;40;20041;-65
2021/08/08 12:24:41;;;;;;;3.85;0.60;;;24.70;50.20;;;;;;3541983;40;20034;-66
2021/08/08 12:27:09;;;;;;;3.13;0.90;;;24.50;50.20;;;;;;3540544;40;20038;-65
2021/08/08 12:29:39;;;;;;;5.57;0.95;;;24.40;48.90;;;;;;3541332;40;20030;-65
2021/08/08 12:32:18;;;;;;;2.45;0.88;;;24.30;49.80;;;;;;3541490;40;20440;-65
2021/08/08 12:34:45;;;;;;;2.15;0.80;;;24.10;50.30;;;;;;3541627;40;20038;-67
2021/08/08 12:37:15;;;;;;;2.72;0.80;;;23.90;50.80;;;;;;3541474;40;20460;-64
2021/08/08 12:39:43;;;;;;;1.88;0.52;;;23.90;51.50;;;;;;3541356;40;20040;-65
2021/08/08 12:42:36;;;;;;;1.73;0.70;;;23.90;50.10;;;;;;3548291;40;20026;-65
2021/08/08 12:45:07;;;;;;;3.67;0.60;;;24.00;52.30;;;;;;3539615;40;20045;-65
2021/08/08 12:47:35;;;;;;;1.17;0.50;;;24.00;50.60;;;;;;3542007;40;20062;-67
2021/08/08 12:50:11;;;;;;;4.45;0.73;;;24.00;49.30;;;;;;3541260;40;20046;-65
2021/08/08 12:52:37;;;;;;;4.82;0.80;;;24.00;50.10;;;;;;3541336;40;20041;-66